Flight Track Log - Related Links

Times and Time Zones

All times are in EDT time to prevent confusion due to time zone crossing. See the AWI3778 flight status page for this flight to view local times or setup timezone preferences in your user account.

Time Position Orientation Groundspeed Altitude Reporting Facility
EDT Latitude Longitude Course Direction KTS MPH feet Rate Location/Type
Tue 11:56:47 AM 39.8833 -75.2167 106° East 148 170 900  Level Philadelphia TRACON
Tue 11:58:41 AM 39.8550 -75.0922 106° East 194 223 4,800 2,172 Climbing New York Center
Tue 11:59:41 AM 39.8394 -75.0044 103° East 233 268 7,200 2,231 Climbing New York Center
Tue 12:00:42 PM 39.8242 -74.9117 102° East 251 289 9,300 2,017 Climbing New York Center
Tue 12:01:40 PM 39.8108 -74.8108 100° East 268 308 11,200 2,017 Climbing New York Center
Tue 12:02:41 PM 39.8019 -74.7050 96° East 280 322 13,300 1,636 Climbing New York Center
Tue 12:03:41 PM 39.8753 -74.6281 39° Northeast 279 321 14,500 1,388 Climbing New York Center
Tue 12:04:42 PM 39.9592 -74.5514 35° Northeast 311 358 16,100 1,537 Climbing New York Center
Tue 12:05:42 PM 40.0431 -74.4692 37° Northeast 346 398 17,600 1,140 Climbing New York Center
Tue 12:06:43 PM 40.1206 -74.3947 36° Northeast 372 428 18,400 1,190 Climbing New York Center
Tue 12:07:43 PM 40.2172 -74.2964 38° Northeast 384 442 20,000 1,271 Climbing New York Center
Tue 12:08:41 PM 40.3075 -74.2086 37° Northeast 389 448 20,900 1,000 Climbing New York Center
Tue 12:09:43 PM 40.3997 -74.1150 38° Northeast 403 464 22,000 1,082 Climbing New York Center
Tue 12:10:43 PM 40.5131 -74.0794 13° North 403 464 23,100 915 Climbing New York Center
Tue 12:11:41 PM 40.6289 -74.0442 13° North 405 466 23,800 915 Climbing New York Center
Tue 12:12:41 PM 40.7386 -73.9864 22° Northeast 415 478 24,900 404 Climbing New York Center
Tue 12:14:39 PM 40.9669 -73.9408 North 450 518 25,000 34 Climbing Boston Center
Tue 12:15:39 PM 41.0883 -73.9133 10° North 449 517 25,000  Level Boston Center
Tue 12:16:39 PM 41.2094 -73.8886 North 439 505 25,000  Level Boston Center
Tue 12:17:39 PM 41.3264 -73.8636 North 439 505 25,000  Level Boston Center
Tue 12:18:39 PM 41.4497 -73.8358 10° North 434 499 25,000  Level Boston Center
Tue 12:19:39 PM 41.5731 -73.8081 10° North 434 499 25,000  Level Boston Center
Tue 12:20:39 PM 41.6942 -73.7828 North 434 499 25,000  Level Boston Center
Tue 12:21:39 PM 41.8217 -73.7578 North 428 493 25,000  Level Boston Center
Tue 12:22:39 PM 41.9450 -73.7325 North 428 493 25,000  Level Boston Center
Tue 12:23:39 PM 42.0411 -73.7119 North 428 493 25,000  Level Boston Center
Tue 12:24:38 PM 42.1478 -73.6806 12° North 433 498 25,000  Level Boston Center
Tue 12:25:39 PM 42.2897 -73.6497 North 428 493 25,000  Level Boston Center
Tue 12:26:39 PM 42.4089 -73.6294 North 428 493 25,000  Level Boston Center
Tue 12:27:39 PM 42.5278 -73.6036 North 428 493 25,000  Level Boston Center
Tue 12:28:39 PM 42.6469 -73.5778 North 428 493 25,000  Level Boston Center
Tue 12:29:39 PM 42.7639 -73.5514 North 428 493 25,000 -850 Level Boston Center
Tue 12:30:39 PM 42.8933 -73.5197 10° North 428 493 23,300 -1,000 Descending Boston Center
Tue 12:31:39 PM 43.0042 -73.4933 10° North 416 479 23,000 -150 Descending Boston Center
Tue 12:32:39 PM 43.1106 -73.4697 North 403 464 23,000  Level Boston Center
Tue 12:33:39 PM 43.2214 -73.4403 11° North 398 458 23,000  Level Boston Center
Tue 12:34:39 PM 43.3361 -73.4164 North 398 458 23,000 -400 Level Boston Center
Tue 12:35:39 PM 43.4511 -73.3867 11° North 409 471 22,200 -1,400 Descending Boston Center
Tue 12:36:39 PM 43.5536 -73.3253 23° Northeast 409 471 20,200 -2,000 Descending Boston Center
Tue 12:37:39 PM 43.6542 -73.2664 23° Northeast 404 465 18,200 -1,950 Descending Boston Center
Tue 12:38:39 PM 43.7525 -73.2103 22° Northeast 392 451 16,300 -1,950 Descending Boston Center
Tue 12:39:39 PM 43.8525 -73.2031 North 365 420 14,300 -2,000 Descending Boston Center
Tue 12:40:39 PM 43.9567 -73.1928 North 365 420 12,300 -1,650 Descending Boston Center
Tue 12:41:39 PM 44.0567 -73.1856 North 365 420 11,000 -1,050 Descending Boston Center
Tue 12:42:39 PM 44.1483 -73.2039 352° North 348 400 10,200 -1,300 Descending Boston Center
Tue 12:43:39 PM 44.2253 -73.2308 346° North 304 350 8,400 -1,800 Descending Boston Center
Tue 12:44:39 PM 44.2958 -73.2756 336° Northwest 279 321 6,600 -1,800 Descending Boston Center
Tue 12:45:39 PM 44.3622 -73.3169 336° Northwest 267 307 4,800 -1,300 Descending Boston Center
Tue 12:46:39 PM 44.4264 -73.3500 340° North 251 289 4,000 -750 Descending Boston Center
Tue 12:47:39 PM 44.4767 -73.3217 22° Northeast 206 237 3,300 -850 Descending Boston Center
Tue 12:48:39 PM 44.5106 -73.2697 48° Northeast 175 201 2,300 -950 Descending Boston Center
Tue 12:49:39 PM 44.5128 -73.2231 86° East 134 154 1,400 -824 Descending Boston Center
Tue 12:50:50 PM 44.4839 -73.1703 127° Southeast 121 139 500 -455 Descending Boston Center
Tue 12:51:51 PM 44.4717 -73.1528 134° Southeast 118 136 400 11,157 Descending Boston Center
Tue 12:52:51 PM 44.4511 -73.1003 119° Southeast 118 136 23,000 22,600 Climbing Boston Center

Login

Don't have an account? Register now (free) for customized features, flight alerts, and more!